Time;durP1;ratioP1;P1;durP2;ratioP2;P2;SDS_P1;SDS_P2;PMS_P1;PMS_P2;Temp;Humidity;BMP_temperature;BMP_pressure;BME280_temperature;BME280_humidity;BME280_pressure;Samples;Min_cycle;Max_cycle;Signal;HPM_P1;HPM_P2
2021/06/11 00:01:36;;;;;;;11.37;5.97;;;16.20;99.90;;;;;;5081149;28;20249;-65
2021/06/11 00:04:04;;;;;;;11.67;5.83;;;16.10;99.90;;;;;;5079963;28;20188;-65
2021/06/11 00:06:32;;;;;;;15.47;6.23;;;16.10;99.90;;;;;;5081845;28;20241;-65
2021/06/11 00:09:03;;;;;;;14.37;6.60;;;16.10;99.90;;;;;;5084588;28;20176;-65
2021/06/11 00:11:35;;;;;;;14.77;6.53;;;16.10;99.90;;;;;;5078868;28;20180;-65
2021/06/11 00:14:03;;;;;;;14.93;6.20;;;16.10;99.90;;;;;;5079233;28;20218;-65
2021/06/11 00:16:31;;;;;;;12.30;6.27;;;16.00;99.90;;;;;;5080535;28;20193;-65
2021/06/11 00:19:00;;;;;;;11.20;5.33;;;16.00;99.90;;;;;;5080356;28;20396;-65
2021/06/11 00:21:28;;;;;;;16.57;6.30;;;16.00;99.90;;;;;;5080618;28;20199;-65
2021/06/11 00:23:56;;;;;;;14.70;6.73;;;15.90;99.90;;;;;;5084071;28;20195;-65
2021/06/11 00:26:24;;;;;;;19.63;7.33;;;15.90;99.90;;;;;;5081087;28;20274;-65
2021/06/11 00:28:53;;;;;;;19.97;8.23;;;15.90;99.90;;;;;;5084229;28;20230;-65
2021/06/11 00:31:20;;;;;;;18.20;6.83;;;15.90;99.90;;;;;;5082077;28;20200;-64
2021/06/11 00:33:49;;;;;;;18.47;6.80;;;15.90;99.90;;;;;;5082203;28;20231;-65
2021/06/11 00:36:17;;;;;;;18.70;8.20;;;15.90;99.90;;;;;;5083111;28;20241;-64
2021/06/11 00:38:45;;;;;;;15.93;7.10;;;15.90;99.90;;;;;;5082011;28;20351;-65
2021/06/11 00:41:13;;;;;;;16.53;7.47;;;15.80;99.90;;;;;;5082782;28;20231;-65
2021/06/11 00:43:41;;;;;;;20.20;7.17;;;15.80;99.90;;;;;;5078698;28;20200;-65
2021/06/11 00:46:10;;;;;;;17.07;6.57;;;15.70;99.90;;;;;;5084044;28;20229;-65
2021/06/11 00:48:38;;;;;;;14.07;6.93;;;15.70;99.90;;;;;;5077107;28;20208;-65
2021/06/11 00:51:06;;;;;;;17.27;7.70;;;15.60;99.90;;;;;;5078373;28;20192;-65
2021/06/11 00:53:35;;;;;;;17.03;6.80;;;15.60;99.90;;;;;;5082073;28;20395;-65
2021/06/11 00:56:03;;;;;;;15.13;7.00;;;15.60;99.90;;;;;;5082711;28;20220;-65
2021/06/11 00:58:32;;;;;;;27.03;7.70;;;15.60;99.90;;;;;;5082302;28;20190;-65
2021/06/11 01:01:01;;;;;;;19.67;8.27;;;15.50;99.90;;;;;;5077270;28;20224;-65
2021/06/11 01:03:30;;;;;;;18.47;7.90;;;15.50;99.90;;;;;;5073458;28;20184;-65
2021/06/11 01:05:58;;;;;;;17.20;7.53;;;15.50;99.90;;;;;;5081237;28;20241;-65
2021/06/11 01:08:44;;;;;;;24.07;8.10;;;15.50;99.90;;;;;;5082356;28;20192;-65
2021/06/11 01:11:12;;;;;;;18.33;7.53;;;15.50;99.90;;;;;;5081559;28;20191;-65
2021/06/11 01:13:41;;;;;;;15.17;7.37;;;15.50;99.90;;;;;;5082198;28;20184;-65
2021/06/11 01:16:10;;;;;;;18.77;7.73;;;15.40;99.90;;;;;;5084748;28;20191;-65
2021/06/11 01:18:39;;;;;;;19.13;7.73;;;15.40;99.90;;;;;;5082178;28;20376;-65
2021/06/11 01:21:07;;;;;;;22.33;7.80;;;15.40;99.90;;;;;;5079926;28;20175;-65
2021/06/11 01:24:08;;;;;;;16.17;7.40;;;15.30;99.90;;;;;;5084479;28;20188;-65
2021/06/11 01:26:38;;;;;;;17.13;7.50;;;15.40;99.90;;;;;;5078560;28;20222;-65
2021/06/11 01:29:09;;;;;;;16.53;7.53;;;15.30;99.90;;;;;;5078973;28;20196;-65
2021/06/11 01:31:40;;;;;;;17.07;7.57;;;15.30;99.90;;;;;;5087676;28;20393;-65
2021/06/11 01:34:13;;;;;;;17.63;7.47;;;15.30;99.90;;;;;;5087451;28;20253;-65
2021/06/11 01:36:44;;;;;;;16.67;7.43;;;15.20;99.90;;;;;;5086691;28;20214;-65
2021/06/11 01:39:15;;;;;;;16.50;7.10;;;15.20;99.90;;;;;;5076487;28;20192;-65
2021/06/11 01:41:45;;;;;;;17.70;7.20;;;15.10;99.90;;;;;;5085121;28;20218;-65
2021/06/11 01:44:14;;;;;;;18.63;7.33;;;15.10;99.90;;;;;;5084794;28;20221;-65
2021/06/11 01:46:43;;;;;;;18.47;6.57;;;15.10;99.90;;;;;;5084840;28;20314;-65
2021/06/11 01:49:14;;;;;;;20.20;6.97;;;15.00;99.90;;;;;;5086721;28;20176;-65
2021/06/11 01:51:43;;;;;;;18.60;7.37;;;15.00;99.90;;;;;;5085485;28;20294;-65
2021/06/11 01:54:12;;;;;;;14.10;6.57;;;15.00;99.90;;;;;;5086925;28;20215;-65
2021/06/11 01:56:41;;;;;;;16.43;6.53;;;15.00;99.90;;;;;;5083391;28;20339;-65
2021/06/11 01:59:11;;;;;;;17.03;7.10;;;14.90;99.90;;;;;;5081627;28;20184;-65
2021/06/11 02:01:40;;;;;;;13.37;6.77;;;14.90;99.90;;;;;;5084517;28;20184;-65
2021/06/11 02:04:10;;;;;;;10.83;6.73;;;14.90;99.90;;;;;;5086573;28;20316;-66
2021/06/11 02:06:41;;;;;;;13.50;6.53;;;14.90;99.90;;;;;;5059431;28;20238;-65
2021/06/11 02:09:28;;;;;;;13.60;6.13;;;14.90;99.90;;;;;;5082522;28;20204;-65
2021/06/11 02:11:56;;;;;;;13.40;6.43;;;14.90;99.90;;;;;;5080483;28;20437;-65
2021/06/11 02:14:26;;;;;;;12.40;6.67;;;14.80;99.90;;;;;;5083308;28;20206;-65
2021/06/11 02:16:55;;;;;;;11.93;6.70;;;14.90;99.90;;;;;;5086213;28;20230;-65
2021/06/11 02:19:23;;;;;;;13.47;7.63;;;14.80;99.90;;;;;;5086386;28;20268;-65
2021/06/11 02:21:50;;;;;;;10.57;6.60;;;14.80;99.90;;;;;;5084420;28;20302;-65
2021/06/11 02:24:19;;;;;;;12.63;6.23;;;14.80;99.90;;;;;;5082563;28;20188;-65
2021/06/11 02:26:48;;;;;;;11.30;6.77;;;14.80;99.90;;;;;;5067910;28;20188;-65
2021/06/11 02:29:16;;;;;;;11.83;7.10;;;14.80;99.90;;;;;;5082503;28;20310;-65
2021/06/11 02:31:45;;;;;;;12.50;7.17;;;14.80;99.90;;;;;;5075957;28;20237;-65
2021/06/11 02:34:13;;;;;;;11.87;6.67;;;14.80;99.90;;;;;;5084068;28;20184;-65
2021/06/11 02:36:41;;;;;;;8.87;6.03;;;14.80;99.90;;;;;;5086058;28;20229;-65
2021/06/11 02:39:09;;;;;;;12.37;6.00;;;14.80;99.90;;;;;;5078786;28;20203;-65
2021/06/11 02:41:41;;;;;;;13.07;6.33;;;14.80;99.90;;;;;;5085740;28;20245;-65
2021/06/11 02:44:11;;;;;;;12.47;6.63;;;14.70;99.90;;;;;;5081962;28;20188;-65
2021/06/11 02:46:45;;;;;;;10.93;6.30;;;14.60;99.90;;;;;;5085147;28;20315;-65
2021/06/11 02:49:22;;;;;;;10.17;5.87;;;14.60;99.90;;;;;;5082136;28;20180;-65
2021/06/11 02:51:53;;;;;;;10.90;6.20;;;14.60;99.90;;;;;;5081774;28;20189;-65
2021/06/11 02:54:26;;;;;;;10.57;6.70;;;14.50;99.90;;;;;;5058476;28;20361;-66
2021/06/11 02:56:58;;;;;;;16.17;6.33;;;14.50;99.90;;;;;;5084326;28;20211;-65
2021/06/11 02:59:30;;;;;;;9.30;5.70;;;14.50;99.90;;;;;;5084244;28;20203;-65
2021/06/11 03:02:04;;;;;;;9.50;6.00;;;14.50;99.90;;;;;;5065788;28;20176;-65
2021/06/11 03:04:35;;;;;;;9.87;6.27;;;14.40;99.90;;;;;;5086280;28;20183;-65
2021/06/11 03:07:04;;;;;;;7.77;5.97;;;14.40;99.90;;;;;;5085684;28;20219;-65
2021/06/11 03:09:35;;;;;;;7.33;6.13;;;14.40;99.90;;;;;;5081085;28;20183;-65
2021/06/11 03:12:04;;;;;;;8.27;5.53;;;14.40;99.90;;;;;;5081100;28;20184;-65
2021/06/11 03:14:34;;;;;;;9.07;5.70;;;14.40;99.90;;;;;;5080125;28;20180;-65
2021/06/11 03:17:03;;;;;;;7.73;5.93;;;14.40;99.90;;;;;;5084342;28;20230;-65
2021/06/11 03:19:36;;;;;;;9.23;5.90;;;14.30;99.90;;;;;;5079417;28;20194;-65
2021/06/11 03:22:08;;;;;;;8.90;6.13;;;14.30;99.90;;;;;;5085152;28;20242;-65
2021/06/11 03:24:41;;;;;;;8.03;5.77;;;14.30;99.90;;;;;;5085074;28;20238;-65
2021/06/11 03:27:16;;;;;;;6.87;5.87;;;14.40;99.90;;;;;;5076275;28;20184;-65
2021/06/11 03:29:49;;;;;;;8.23;5.83;;;14.40;99.90;;;;;;5084300;28;20196;-65
2021/06/11 03:32:21;;;;;;;7.87;5.90;;;14.40;99.90;;;;;;5082947;28;20429;-65
2021/06/11 03:34:54;;;;;;;8.07;6.07;;;14.40;99.90;;;;;;5079947;28;20231;-65
2021/06/11 03:37:25;;;;;;;8.23;5.43;;;14.40;99.90;;;;;;5088371;28;20187;-65
2021/06/11 03:39:57;;;;;;;9.97;6.07;;;14.40;99.90;;;;;;5087354;28;20180;-65
2021/06/11 03:42:25;;;;;;;5.40;4.90;;;14.30;99.90;;;;;;5083820;28;20196;-65
2021/06/11 03:44:55;;;;;;;6.77;6.07;;;14.30;99.90;;;;;;5064482;28;20184;-65
2021/06/11 03:47:25;;;;;;;5.50;5.00;;;14.30;99.90;;;;;;5081280;28;20191;-65
2021/06/11 03:49:58;;;;;;;9.23;5.67;;;14.30;99.90;;;;;;5081178;28;20211;-65
2021/06/11 03:52:28;;;;;;;6.67;5.30;;;14.20;99.90;;;;;;5084691;28;20198;-65
2021/06/11 03:55:02;;;;;;;10.30;6.07;;;14.30;99.90;;;;;;5076068;28;20388;-65
2021/06/11 03:57:31;;;;;;;8.90;5.87;;;14.30;99.90;;;;;;5082079;28;20184;-66
2021/06/11 04:00:01;;;;;;;8.17;5.93;;;14.30;99.90;;;;;;5080541;28;20191;-65
2021/06/11 04:02:29;;;;;;;9.50;5.97;;;14.30;99.90;;;;;;5082860;28;20199;-65
2021/06/11 04:04:59;;;;;;;6.67;5.43;;;14.30;99.90;;;;;;5076456;28;20399;-66
2021/06/11 04:07:32;;;;;;;7.93;5.97;;;14.30;99.90;;;;;;5082455;28;20384;-65
2021/06/11 04:10:04;;;;;;;10.57;5.77;;;14.30;99.90;;;;;;5077993;28;20197;-65
2021/06/11 04:13:16;;;;;;;9.80;5.70;;;14.30;99.90;;;;;;5079418;28;20200;-65
2021/06/11 04:16:15;;;;;;;10.10;6.17;;;14.40;99.90;;;;;;5079855;28;20244;-65
2021/06/11 04:18:45;;;;;;;7.03;6.10;;;14.50;99.90;;;;;;5085806;28;20204;-65
2021/06/11 04:21:21;;;;;;;8.37;5.57;;;14.50;99.90;;;;;;5079060;28;20185;-65
2021/06/11 04:23:50;;;;;;;8.57;5.60;;;14.60;99.90;;;;;;5079113;28;20439;-65
2021/06/11 04:26:22;;;;;;;9.80;6.17;;;14.60;99.90;;;;;;5083965;28;20250;-65
2021/06/11 04:28:52;;;;;;;6.87;5.73;;;14.70;99.90;;;;;;5083786;28;20463;-65
2021/06/11 04:31:20;;;;;;;6.10;5.50;;;14.70;99.90;;;;;;5079645;28;20349;-66
2021/06/11 04:33:49;;;;;;;7.10;5.17;;;14.70;99.90;;;;;;5079565;28;20259;-65
2021/06/11 04:36:18;;;;;;;8.13;6.20;;;14.80;99.90;;;;;;5078819;28;20224;-65
2021/06/11 04:38:56;;;;;;;7.83;5.80;;;14.80;99.90;;;;;;5081870;28;20252;-65
2021/06/11 04:41:25;;;;;;;7.70;6.07;;;14.90;99.90;;;;;;5080708;28;20215;-65
2021/06/11 04:43:56;;;;;;;8.27;5.87;;;15.10;99.90;;;;;;5082751;28;20392;-65
2021/06/11 04:46:24;;;;;;;9.73;5.90;;;15.10;99.90;;;;;;5079453;28;20184;-65
2021/06/11 04:48:53;;;;;;;7.07;5.40;;;15.10;99.90;;;;;;5080570;28;20180;-65
2021/06/11 04:51:22;;;;;;;6.23;4.90;;;15.20;99.90;;;;;;5081053;28;20413;-65
2021/06/11 04:53:51;;;;;;;5.57;5.03;;;15.30;99.90;;;;;;5082178;28;20406;-65
2021/06/11 04:56:19;;;;;;;7.07;5.33;;;15.30;99.90;;;;;;5077724;28;20238;-65
2021/06/11 04:58:48;;;;;;;8.47;5.10;;;15.40;99.90;;;;;;5080624;28;20192;-65
2021/06/11 05:01:16;;;;;;;8.33;5.30;;;15.50;99.90;;;;;;5083978;28;20245;-65
2021/06/11 05:03:44;;;;;;;8.27;5.00;;;15.50;99.90;;;;;;5083266;28;20298;-65
2021/06/11 05:06:12;;;;;;;8.53;5.63;;;15.60;99.90;;;;;;5066156;28;20180;-65
2021/06/11 05:08:42;;;;;;;6.57;5.10;;;15.60;99.90;;;;;;5060229;28;20186;-65
2021/06/11 05:11:10;;;;;;;5.93;5.33;;;15.70;99.90;;;;;;5078822;28;20186;-65
2021/06/11 05:13:38;;;;;;;5.03;4.53;;;15.70;99.90;;;;;;5080925;28;20200;-65
2021/06/11 05:16:06;;;;;;;5.47;4.97;;;15.80;99.90;;;;;;5083114;28;20210;-65
2021/06/11 05:18:34;;;;;;;5.00;4.60;;;15.90;99.90;;;;;;5066085;28;20196;-65
2021/06/11 05:21:03;;;;;;;5.30;4.80;;;15.90;99.90;;;;;;5082167;28;20186;-65
2021/06/11 05:23:31;;;;;;;5.13;4.63;;;16.00;99.90;;;;;;5084579;28;20193;-65
2021/06/11 05:26:00;;;;;;;4.80;4.40;;;16.00;99.90;;;;;;5073706;28;20199;-65
2021/06/11 05:28:28;;;;;;;6.97;4.63;;;16.10;99.90;;;;;;5081364;28;20354;-65
2021/06/11 05:30:56;;;;;;;4.80;4.40;;;16.10;99.90;;;;;;5083309;28;20222;-65
2021/06/11 05:33:24;;;;;;;5.43;4.77;;;16.20;99.90;;;;;;5081380;28;20211;-65
2021/06/11 05:35:53;;;;;;;6.13;4.70;;;16.30;99.90;;;;;;5087397;28;20399;-66
2021/06/11 05:38:21;;;;;;;6.10;4.60;;;16.40;99.90;;;;;;5083030;28;20245;-65
2021/06/11 05:40:49;;;;;;;4.50;4.10;;;16.40;99.90;;;;;;5081750;28;20326;-65
2021/06/11 05:43:18;;;;;;;4.63;4.20;;;16.50;99.90;;;;;;5081910;28;20192;-66
2021/06/11 05:45:46;;;;;;;7.43;4.40;;;16.60;99.90;;;;;;5060478;28;20192;-65
2021/06/11 05:48:14;;;;;;;5.80;4.40;;;16.70;99.90;;;;;;5083810;28;20188;-65
2021/06/11 05:50:42;;;;;;;8.00;4.60;;;16.70;99.90;;;;;;5061227;28;20340;-65
2021/06/11 05:53:10;;;;;;;4.50;4.10;;;16.80;99.90;;;;;;5077535;28;20372;-66
2021/06/11 05:55:38;;;;;;;6.60;4.60;;;16.90;99.90;;;;;;5077651;28;20239;-66
2021/06/11 05:58:09;;;;;;;6.03;4.70;;;16.90;99.90;;;;;;5079916;28;20304;-65
2021/06/11 06:00:38;;;;;;;6.67;4.30;;;17.00;99.90;;;;;;5082490;28;20368;-65
2021/06/11 06:03:06;;;;;;;4.80;4.30;;;17.10;99.90;;;;;;5079251;28;20188;-65
2021/06/11 06:05:34;;;;;;;4.33;3.83;;;17.20;99.90;;;;;;5078872;28;20183;-65
2021/06/11 06:08:02;;;;;;;5.07;3.87;;;17.20;99.90;;;;;;5085510;28;20218;-66
2021/06/11 06:10:30;;;;;;;4.43;4.00;;;17.20;99.90;;;;;;5087567;28;20239;-65
2021/06/11 06:12:58;;;;;;;4.87;4.10;;;17.20;99.90;;;;;;5087517;28;20184;-65
2021/06/11 06:15:26;;;;;;;5.10;4.33;;;17.30;99.90;;;;;;5069736;28;20419;-66
2021/06/11 06:17:58;;;;;;;5.27;4.10;;;17.50;99.90;;;;;;5078252;28;20184;-65
2021/06/11 06:20:26;;;;;;;4.07;3.70;;;17.50;99.90;;;;;;5084839;28;20192;-65
2021/06/11 06:22:54;;;;;;;4.53;4.13;;;17.60;99.90;;;;;;5070052;28;20184;-65
2021/06/11 06:25:22;;;;;;;4.50;4.07;;;17.60;99.90;;;;;;5085557;28;20222;-66
2021/06/11 06:27:50;;;;;;;4.80;4.30;;;17.60;99.90;;;;;;5086547;28;20198;-66
2021/06/11 06:30:20;;;;;;;5.67;4.30;;;17.60;99.90;;;;;;5087822;28;20259;-65
2021/06/11 06:32:48;;;;;;;6.53;3.93;;;17.70;99.90;;;;;;5086794;28;20211;-65
2021/06/11 06:35:17;;;;;;;4.93;3.73;;;17.70;99.90;;;;;;5087809;28;20279;-65
2021/06/11 06:37:45;;;;;;;5.77;4.43;;;17.80;99.90;;;;;;5080742;28;20220;-66
2021/06/11 06:40:14;;;;;;;4.90;4.50;;;18.00;99.90;;;;;;5087646;28;20227;-65
2021/06/11 06:42:42;;;;;;;4.60;4.27;;;18.00;99.90;;;;;;5086779;28;20184;-65
2021/06/11 06:45:13;;;;;;;5.50;4.50;;;18.10;99.90;;;;;;5082786;28;20180;-66
2021/06/11 06:47:43;;;;;;;4.93;4.53;;;18.20;99.90;;;;;;5074172;28;20309;-67
2021/06/11 06:50:13;;;;;;;4.77;4.27;;;18.20;99.90;;;;;;5081180;28;20184;-65
2021/06/11 06:52:42;;;;;;;4.50;4.07;;;18.30;99.90;;;;;;5086094;28;20188;-66
2021/06/11 06:55:11;;;;;;;5.03;4.53;;;18.40;99.90;;;;;;5085376;28;20278;-67
2021/06/11 06:57:40;;;;;;;5.17;4.30;;;18.50;99.90;;;;;;5085939;28;20229;-65
2021/06/11 07:00:09;;;;;;;4.83;4.30;;;18.60;99.90;;;;;;5085292;28;20315;-66
2021/06/11 07:02:37;;;;;;;4.30;4.00;;;18.60;99.90;;;;;;5079578;28;20176;-65
2021/06/11 07:05:07;;;;;;;4.27;3.70;;;18.60;99.90;;;;;;5077907;28;20338;-65
2021/06/11 07:07:35;;;;;;;4.50;4.10;;;18.70;99.90;;;;;;5085339;28;20194;-66
2021/06/11 07:10:05;;;;;;;4.87;4.27;;;18.70;99.90;;;;;;5084968;28;20184;-66
2021/06/11 07:12:33;;;;;;;7.33;4.60;;;18.80;99.90;;;;;;5086099;28;20221;-67
2021/06/11 07:15:01;;;;;;;5.40;4.90;;;18.80;99.90;;;;;;5086897;28;20237;-67
2021/06/11 07:17:29;;;;;;;10.33;6.00;;;18.90;99.90;;;;;;5082591;28;20269;-65
2021/06/11 07:19:57;;;;;;;6.10;5.60;;;18.90;99.90;;;;;;5085841;28;20195;-66
2021/06/11 07:22:25;;;;;;;6.03;5.43;;;19.00;99.90;;;;;;5083294;28;20180;-65
2021/06/11 07:24:53;;;;;;;7.00;6.40;;;19.00;99.90;;;;;;5083929;28;20234;-65
2021/06/11 07:27:23;;;;;;;10.63;6.40;;;19.00;99.90;;;;;;5080455;28;20230;-65
2021/06/11 07:29:51;;;;;;;9.07;7.03;;;19.00;99.90;;;;;;5082489;28;20188;-66
2021/06/11 07:32:19;;;;;;;7.07;6.43;;;19.00;99.90;;;;;;5083039;28;20176;-66
2021/06/11 07:34:47;;;;;;;7.83;7.10;;;19.00;99.90;;;;;;5085598;28;20222;-65
2021/06/11 07:37:15;;;;;;;7.53;6.90;;;19.20;99.90;;;;;;5087337;28;20371;-66
2021/06/11 07:39:43;;;;;;;8.23;7.63;;;19.30;99.90;;;;;;5085511;28;20192;-65
2021/06/11 07:42:12;;;;;;;7.60;6.90;;;19.30;99.90;;;;;;5083709;28;20180;-65
2021/06/11 07:44:42;;;;;;;8.60;7.77;;;19.20;99.90;;;;;;5084416;28;20192;-66
2021/06/11 07:47:10;;;;;;;11.03;7.43;;;19.30;99.90;;;;;;5066062;28;20242;-66
2021/06/11 07:49:38;;;;;;;8.90;7.53;;;19.30;99.90;;;;;;5086083;28;20184;-66
2021/06/11 07:52:07;;;;;;;8.43;7.63;;;19.10;99.90;;;;;;5078098;28;20191;-66
2021/06/11 07:54:34;;;;;;;8.07;6.80;;;19.00;99.90;;;;;;5066497;28;20180;-66
2021/06/11 07:57:03;;;;;;;9.73;7.77;;;19.20;99.90;;;;;;5082704;28;20268;-65
2021/06/11 07:59:30;;;;;;;11.07;8.53;;;19.30;99.90;;;;;;5083897;28;20188;-66
2021/06/11 08:02:00;;;;;;;8.97;8.07;;;19.30;99.90;;;;;;5085274;28;20200;-67
2021/06/11 08:04:28;;;;;;;9.20;8.30;;;19.30;99.90;;;;;;5085761;28;20420;-67
2021/06/11 08:06:56;;;;;;;10.03;8.33;;;19.10;99.90;;;;;;5077663;28;20219;-66
2021/06/11 08:09:25;;;;;;;11.40;7.93;;;19.10;99.90;;;;;;5084361;28;20191;-67
2021/06/11 08:11:53;;;;;;;10.87;8.33;;;19.20;99.90;;;;;;5082657;28;20442;-66
2021/06/11 08:14:21;;;;;;;8.53;7.67;;;19.20;99.90;;;;;;5083137;28;20192;-67
2021/06/11 08:16:50;;;;;;;9.43;8.03;;;19.30;99.90;;;;;;5079919;28;20331;-66
2021/06/11 08:19:19;;;;;;;8.80;7.67;;;19.50;99.90;;;;;;5084137;28;20316;-66
2021/06/11 08:21:47;;;;;;;11.73;7.60;;;19.40;99.90;;;;;;5083476;28;20292;-67
2021/06/11 08:24:16;;;;;;;8.60;7.70;;;19.50;99.90;;;;;;5074783;28;20184;-66
2021/06/11 08:26:44;;;;;;;8.63;7.27;;;19.60;99.90;;;;;;5084163;28;20184;-66
2021/06/11 08:29:12;;;;;;;8.00;7.20;;;19.90;99.90;;;;;;5081031;28;20184;-66
2021/06/11 08:31:41;;;;;;;8.63;6.63;;;20.10;99.90;;;;;;5082729;28;20199;-66
2021/06/11 08:34:09;;;;;;;7.63;7.00;;;20.10;99.90;;;;;;5084362;28;20204;-67
2021/06/11 08:36:38;;;;;;;8.03;7.23;;;20.50;99.90;;;;;;5086982;28;20223;-67
2021/06/11 08:39:06;;;;;;;7.67;6.97;;;20.80;99.90;;;;;;5083121;28;20358;-66
2021/06/11 08:41:34;;;;;;;7.93;7.20;;;20.80;99.90;;;;;;5084727;28;20183;-66
2021/06/11 08:44:02;;;;;;;7.93;7.13;;;21.00;99.90;;;;;;5079488;28;20190;-67
2021/06/11 08:46:32;;;;;;;8.20;7.40;;;21.30;99.90;;;;;;5084788;28;20194;-66
2021/06/11 08:49:01;;;;;;;8.70;7.80;;;21.40;99.90;;;;;;5083227;28;20269;-67
2021/06/11 08:51:29;;;;;;;9.60;8.60;;;21.30;99.90;;;;;;5081880;28;20183;-67
2021/06/11 08:53:59;;;;;;;12.10;8.73;;;21.20;99.90;;;;;;5084582;28;20233;-66
2021/06/11 08:56:26;;;;;;;9.97;8.00;;;21.00;99.90;;;;;;5064846;28;20228;-67
2021/06/11 08:58:54;;;;;;;8.73;7.83;;;21.20;99.90;;;;;;5058942;28;20184;-66
2021/06/11 09:01:22;;;;;;;9.57;8.07;;;21.20;99.90;;;;;;5082479;28;20184;-67
2021/06/11 09:03:52;;;;;;;13.97;7.90;;;21.20;99.90;;;;;;5083846;28;20225;-67
2021/06/11 09:06:35;;;;;;;9.57;8.23;;;21.10;99.90;;;;;;5081754;28;20200;-67
2021/06/11 09:09:06;;;;;;;9.03;8.13;;;21.30;99.90;;;;;;5062625;28;20409;-65
2021/06/11 09:11:36;;;;;;;10.53;8.00;;;21.30;99.90;;;;;;5085280;28;20193;-67
2021/06/11 09:14:06;;;;;;;8.90;8.00;;;21.30;99.90;;;;;;5083305;28;20186;-66
2021/06/11 09:16:43;;;;;;;10.03;8.50;;;21.50;99.90;;;;;;5084550;28;20402;-67
2021/06/11 09:19:13;;;;;;;10.33;8.27;;;22.20;99.90;;;;;;5075144;28;20278;-67
2021/06/11 09:21:45;;;;;;;10.13;7.73;;;22.40;99.90;;;;;;5083329;28;20202;-67
2021/06/11 09:24:21;;;;;;;9.67;7.73;;;22.80;99.90;;;;;;5081726;28;20406;-67
2021/06/11 09:27:08;;;;;;;8.90;8.00;;;22.70;99.90;;;;;;5049299;28;20236;-67
2021/06/11 09:29:39;;;;;;;10.50;7.47;;;22.90;99.90;;;;;;5080124;28;20180;-67
2021/06/11 09:32:14;;;;;;;9.33;6.73;;;22.70;99.90;;;;;;5083437;28;20269;-67
2021/06/11 09:34:43;;;;;;;7.17;6.47;;;22.90;99.90;;;;;;5060764;28;20188;-67
2021/06/11 09:37:13;;;;;;;7.43;6.73;;;23.30;99.90;;;;;;5083518;28;20212;-67
2021/06/11 09:39:53;;;;;;;7.77;6.67;;;24.00;99.90;;;;;;5075459;28;20184;-67
2021/06/11 09:42:23;;;;;;;7.77;6.97;;;23.90;99.90;;;;;;5084476;28;20192;-66
2021/06/11 09:44:53;;;;;;;6.63;6.03;;;23.80;99.90;;;;;;5085106;28;20185;-67
2021/06/11 09:47:38;;;;;;;6.53;5.93;;;24.00;99.90;;;;;;5086011;28;20293;-67
2021/06/11 09:50:15;;;;;;;6.67;6.10;;;24.00;99.90;;;;;;5082987;28;20305;-66
2021/06/11 09:52:54;;;;;;;6.68;5.93;;;23.90;99.90;;;;;;5086373;28;20451;-67
2021/06/11 09:55:33;;;;;;;7.80;6.27;;;24.10;99.90;;;;;;5088101;28;20216;-66
2021/06/11 09:58:16;;;;;;;6.50;5.90;;;24.10;99.90;;;;;;5084963;28;20204;-66
2021/06/11 10:00:47;;;;;;;6.85;5.72;;;24.30;99.90;;;;;;5059372;28;20193;-67
2021/06/11 10:03:17;;;;;;;8.70;5.53;;;24.40;99.90;;;;;;5075204;28;20180;-67
2021/06/11 10:05:46;;;;;;;5.40;4.78;;;24.60;99.90;;;;;;5088237;28;20192;-67
2021/06/11 10:08:15;;;;;;;6.10;5.43;;;25.30;99.90;;;;;;5083950;28;20181;-66
2021/06/11 10:10:46;;;;;;;5.57;5.07;;;24.90;99.90;;;;;;5083799;28;20182;-67
2021/06/11 10:13:16;;;;;;;7.63;4.68;;;24.70;99.90;;;;;;5086969;28;20187;-67
2021/06/11 10:15:45;;;;;;;4.32;4.03;;;24.60;99.90;;;;;;5058610;28;20330;-67
2021/06/11 10:18:14;;;;;;;5.15;3.88;;;24.70;99.90;;;;;;5084354;28;20231;-66
2021/06/11 10:20:43;;;;;;;5.20;4.75;;;25.00;99.90;;;;;;5086638;28;20182;-66
2021/06/11 10:23:13;;;;;;;4.35;3.95;;;25.20;99.90;;;;;;5065982;28;20243;-66
2021/06/11 10:25:43;;;;;;;3.65;3.45;;;25.30;99.90;;;;;;5068105;28;20214;-67
2021/06/11 10:28:18;;;;;;;6.45;4.90;;;25.40;99.90;;;;;;5082728;28;20191;-66
2021/06/11 10:30:48;;;;;;;4.45;3.97;;;25.80;99.90;;;;;;5084175;28;20187;-67
2021/06/11 10:33:16;;;;;;;3.25;3.00;;;25.80;99.90;;;;;;5084235;28;20389;-66
2021/06/11 10:35:46;;;;;;;6.40;4.20;;;26.00;99.90;;;;;;5066333;28;20369;-66
2021/06/11 10:38:32;;;;;;;5.28;4.78;;;26.40;99.90;;;;;;5090357;28;20234;-66
2021/06/11 10:41:01;;;;;;;5.07;4.57;;;26.60;99.90;;;;;;5084421;28;20182;-66
2021/06/11 10:43:35;;;;;;;3.90;3.67;;;26.50;99.90;;;;;;5084995;28;20209;-66
2021/06/11 10:46:04;;;;;;;5.00;4.63;;;26.60;99.90;;;;;;5085932;28;20189;-67
2021/06/11 10:49:01;;;;;;;5.47;4.35;;;26.40;99.90;;;;;;5077760;28;20190;-67
2021/06/11 10:51:34;;;;;;;4.30;3.90;;;26.40;99.90;;;;;;5082227;28;20243;-66
2021/06/11 10:54:29;;;;;;;6.90;4.70;;;26.70;99.90;;;;;;5058074;28;20322;-66
2021/06/11 10:57:16;;;;;;;4.20;3.90;;;26.60;99.90;;;;;;5077822;28;20268;-66
2021/06/11 10:59:48;;;;;;;4.10;3.80;;;26.70;99.90;;;;;;5084240;28;20251;-66
2021/06/11 11:02:18;;;;;;;5.00;4.53;;;26.90;99.90;;;;;;5086068;28;20213;-67
2021/06/11 11:04:48;;;;;;;4.72;3.70;;;27.30;99.90;;;;;;5085299;28;20189;-66
2021/06/11 11:07:33;;;;;;;4.88;4.47;;;27.40;99.90;;;;;;5087144;28;20241;-66
2021/06/11 11:10:04;;;;;;;3.97;3.70;;;27.30;99.90;;;;;;5084030;28;20226;-67
2021/06/11 11:12:59;;;;;;;4.45;4.25;;;27.40;99.90;;;;;;5085284;28;20182;-66
2021/06/11 11:15:37;;;;;;;4.35;4.00;;;27.50;99.90;;;;;;5082295;28;20223;-67
2021/06/11 11:18:05;;;;;;;4.00;3.70;;;27.10;99.90;;;;;;5087329;28;20314;-67
2021/06/11 11:20:35;;;;;;;3.30;3.20;;;27.30;99.90;;;;;;5075051;28;20185;-66
2021/06/11 11:23:05;;;;;;;3.85;3.65;;;27.40;99.90;;;;;;5084678;28;20176;-66
2021/06/11 11:25:33;;;;;;;4.15;3.80;;;27.30;99.90;;;;;;5080491;28;20210;-66
2021/06/11 11:28:02;;;;;;;3.28;2.95;;;27.20;99.90;;;;;;5079043;28;20215;-67
2021/06/11 11:30:30;;;;;;;1.90;1.80;;;27.40;99.90;;;;;;5083123;28;20277;-66
2021/06/11 11:33:01;;;;;;;2.25;2.17;;;27.40;99.90;;;;;;5086707;28;20195;-66
2021/06/11 11:35:32;;;;;;;2.22;2.20;;;27.50;99.90;;;;;;5083905;28;20229;-66
2021/06/11 11:38:02;;;;;;;2.70;2.60;;;27.40;99.90;;;;;;5086981;28;20309;-66
2021/06/11 11:40:30;;;;;;;2.30;2.20;;;27.20;99.90;;;;;;5082447;28;20311;-65
2021/06/11 11:43:01;;;;;;;2.40;2.20;;;27.30;99.90;;;;;;5084982;28;20239;-65
2021/06/11 11:45:29;;;;;;;2.80;2.60;;;27.40;99.90;;;;;;5083261;28;20191;-65
2021/06/11 11:48:02;;;;;;;2.50;2.40;;;27.10;99.90;;;;;;5082588;28;20185;-66
2021/06/11 11:50:33;;;;;;;2.57;2.43;;;26.90;99.90;;;;;;5079385;28;20177;-66
2021/06/11 11:53:01;;;;;;;3.00;2.80;;;26.90;99.90;;;;;;5088354;28;20203;-66
2021/06/11 11:55:29;;;;;;;4.53;2.90;;;26.80;99.90;;;;;;5084568;28;20225;-66
2021/06/11 11:57:57;;;;;;;2.97;2.77;;;26.80;99.90;;;;;;5065614;28;20508;-66
2021/06/11 12:00:26;;;;;;;2.80;2.70;;;26.80;99.90;;;;;;5084190;28;20238;-65
2021/06/11 12:02:56;;;;;;;3.13;2.90;;;26.70;99.90;;;;;;5083413;28;20255;-65
2021/06/11 12:05:27;;;;;;;3.23;3.03;;;26.60;99.90;;;;;;5083911;28;20328;-66
2021/06/11 12:07:55;;;;;;;3.60;3.30;;;26.70;99.90;;;;;;5072301;28;20360;-66
2021/06/11 12:10:24;;;;;;;3.40;3.20;;;26.70;99.90;;;;;;5080354;28;20184;-65
2021/06/11 12:12:52;;;;;;;4.13;3.50;;;26.90;99.90;;;;;;5082044;28;20214;-63
2021/06/11 12:15:21;;;;;;;5.77;4.23;;;26.70;99.90;;;;;;5079032;28;20192;-64
2021/06/11 12:17:49;;;;;;;4.47;3.67;;;26.30;99.90;;;;;;5085138;28;20233;-65
2021/06/11 12:20:18;;;;;;;3.80;3.50;;;26.00;99.90;;;;;;5079509;28;20378;-63
2021/06/11 12:22:48;;;;;;;4.93;4.47;;;26.10;99.90;;;;;;5077639;28;20180;-65
2021/06/11 12:25:15;;;;;;;5.67;3.80;;;26.20;99.90;;;;;;5084570;28;20184;-65
2021/06/11 12:27:43;;;;;;;3.83;3.30;;;26.40;99.90;;;;;;5084313;28;20230;-64
2021/06/11 12:30:13;;;;;;;6.40;4.10;;;26.50;99.90;;;;;;5083142;28;20192;-64
2021/06/11 12:32:40;;;;;;;11.33;3.60;;;26.40;99.90;;;;;;5085705;28;20184;-64
2021/06/11 12:35:10;;;;;;;5.37;3.80;;;26.50;99.90;;;;;;5083122;28;20221;-64
2021/06/11 12:37:38;;;;;;;3.50;3.30;;;26.40;99.90;;;;;;5091337;28;20183;-64
2021/06/11 12:40:10;;;;;;;3.97;3.70;;;26.30;99.90;;;;;;5076760;28;20185;-65
2021/06/11 12:42:39;;;;;;;7.03;5.07;;;26.10;99.90;;;;;;5063967;28;20349;-64
2021/06/11 12:45:08;;;;;;;5.87;5.37;;;26.10;99.90;;;;;;5083985;28;20191;-64
2021/06/11 12:47:39;;;;;;;4.20;4.00;;;26.30;99.90;;;;;;5083140;28;20182;-64
2021/06/11 12:50:08;;;;;;;4.47;4.13;;;26.40;99.90;;;;;;5079851;28;20244;-64
2021/06/11 12:52:37;;;;;;;5.30;4.90;;;26.60;99.90;;;;;;5077664;28;20178;-64
2021/06/11 12:55:06;;;;;;;5.93;5.10;;;26.60;99.90;;;;;;5069867;28;20184;-64
2021/06/11 12:57:39;;;;;;;5.00;4.57;;;26.80;99.90;;;;;;5080318;28;20294;-64
2021/06/11 13:00:09;;;;;;;5.57;3.60;;;26.90;99.90;;;;;;5082220;28;20184;-65